sensor_id;sensor_type;location;lat;lon;timestamp;P1;durP1;ratioP1;P2;durP2;ratioP2
76065;SDS011;64763;48.928;8.474;2023-07-20T00:00:56;5.50;;;2.30;;
76065;SDS011;64763;48.928;8.474;2023-07-20T00:03:22;3.97;;;2.33;;
76065;SDS011;64763;48.928;8.474;2023-07-20T00:05:50;9.57;;;2.80;;
76065;SDS011;64763;48.928;8.474;2023-07-20T00:08:16;5.38;;;2.67;;
76065;SDS011;64763;48.928;8.474;2023-07-20T00:10:41;7.47;;;2.38;;
76065;SDS011;64763;48.928;8.474;2023-07-20T00:13:06;4.07;;;2.40;;
76065;SDS011;64763;48.928;8.474;2023-07-20T00:15:32;3.70;;;2.20;;
76065;SDS011;64763;48.928;8.474;2023-07-20T00:17:57;3.43;;;2.40;;
76065;SDS011;64763;48.928;8.474;2023-07-20T00:20:23;7.53;;;2.63;;
76065;SDS011;64763;48.928;8.474;2023-07-20T00:22:49;4.43;;;2.85;;
76065;SDS011;64763;48.928;8.474;2023-07-20T00:25:16;5.00;;;2.50;;
76065;SDS011;64763;48.928;8.474;2023-07-20T00:27:41;4.03;;;2.43;;
76065;SDS011;64763;48.928;8.474;2023-07-20T00:30:06;4.20;;;2.60;;
76065;SDS011;64763;48.928;8.474;2023-07-20T00:32:32;3.55;;;2.50;;
76065;SDS011;64763;48.928;8.474;2023-07-20T00:34:57;4.90;;;2.40;;
76065;SDS011;64763;48.928;8.474;2023-07-20T00:37:22;4.57;;;2.50;;
76065;SDS011;64763;48.928;8.474;2023-07-20T00:39:47;7.68;;;2.40;;
76065;SDS011;64763;48.928;8.474;2023-07-20T00:42:13;5.50;;;2.43;;
76065;SDS011;64763;48.928;8.474;2023-07-20T00:44:38;4.37;;;2.47;;
76065;SDS011;64763;48.928;8.474;2023-07-20T00:47:03;6.17;;;2.80;;
76065;SDS011;64763;48.928;8.474;2023-07-20T00:49:29;4.95;;;2.58;;
76065;SDS011;64763;48.928;8.474;2023-07-20T00:51:54;4.20;;;2.67;;
76065;SDS011;64763;48.928;8.474;2023-07-20T00:54:19;4.05;;;2.47;;
76065;SDS011;64763;48.928;8.474;2023-07-20T00:56:45;3.53;;;2.50;;
76065;SDS011;64763;48.928;8.474;2023-07-20T00:59:11;4.18;;;2.42;;
76065;SDS011;64763;48.928;8.474;2023-07-20T01:01:36;4.47;;;2.63;;
76065;SDS011;64763;48.928;8.474;2023-07-20T01:04:01;4.17;;;2.30;;
76065;SDS011;64763;48.928;8.474;2023-07-20T01:09:09;4.07;;;2.67;;
76065;SDS011;64763;48.928;8.474;2023-07-20T01:11:49;3.67;;;2.30;;
76065;SDS011;64763;48.928;8.474;2023-07-20T01:14:16;4.35;;;2.08;;
76065;SDS011;64763;48.928;8.474;2023-07-20T01:16:42;3.97;;;2.88;;
76065;SDS011;64763;48.928;8.474;2023-07-20T01:19:07;3.73;;;2.43;;
76065;SDS011;64763;48.928;8.474;2023-07-20T01:22:09;6.95;;;2.47;;
76065;SDS011;64763;48.928;8.474;2023-07-20T01:32:25;5.07;;;2.50;;
76065;SDS011;64763;48.928;8.474;2023-07-20T01:34:52;5.57;;;2.50;;
76065;SDS011;64763;48.928;8.474;2023-07-20T01:37:17;4.65;;;2.50;;
76065;SDS011;64763;48.928;8.474;2023-07-20T01:39:45;4.88;;;2.10;;
76065;SDS011;64763;48.928;8.474;2023-07-20T01:42:10;4.43;;;2.28;;
76065;SDS011;64763;48.928;8.474;2023-07-20T01:44:37;3.67;;;2.40;;
76065;SDS011;64763;48.928;8.474;2023-07-20T01:47:02;5.20;;;2.33;;
76065;SDS011;64763;48.928;8.474;2023-07-20T01:49:27;5.23;;;2.43;;
76065;SDS011;64763;48.928;8.474;2023-07-20T01:51:52;6.47;;;2.70;;
76065;SDS011;64763;48.928;8.474;2023-07-20T01:54:17;4.83;;;2.20;;
76065;SDS011;64763;48.928;8.474;2023-07-20T01:56:43;4.77;;;2.20;;
76065;SDS011;64763;48.928;8.474;2023-07-20T01:59:08;4.20;;;2.67;;
76065;SDS011;64763;48.928;8.474;2023-07-20T02:01:33;3.50;;;2.33;;
76065;SDS011;64763;48.928;8.474;2023-07-20T02:03:59;5.72;;;2.80;;
76065;SDS011;64763;48.928;8.474;2023-07-20T02:06:24;6.13;;;2.47;;
76065;SDS011;64763;48.928;8.474;2023-07-20T02:08:49;4.53;;;2.30;;
76065;SDS011;64763;48.928;8.474;2023-07-20T02:11:14;5.77;;;2.07;;
76065;SDS011;64763;48.928;8.474;2023-07-20T02:13:39;5.83;;;2.57;;
76065;SDS011;64763;48.928;8.474;2023-07-20T02:16:05;7.00;;;2.67;;
76065;SDS011;64763;48.928;8.474;2023-07-20T02:18:30;3.67;;;2.23;;
76065;SDS011;64763;48.928;8.474;2023-07-20T02:20:55;3.27;;;2.40;;
76065;SDS011;64763;48.928;8.474;2023-07-20T02:23:20;4.47;;;2.60;;
76065;SDS011;64763;48.928;8.474;2023-07-20T02:25:46;3.40;;;2.40;;
76065;SDS011;64763;48.928;8.474;2023-07-20T02:28:13;4.03;;;2.60;;
76065;SDS011;64763;48.928;8.474;2023-07-20T02:30:38;3.95;;;2.30;;
76065;SDS011;64763;48.928;8.474;2023-07-20T02:33:04;5.03;;;2.40;;
76065;SDS011;64763;48.928;8.474;2023-07-20T02:35:30;3.80;;;2.20;;
76065;SDS011;64763;48.928;8.474;2023-07-20T02:37:55;4.47;;;2.47;;
76065;SDS011;64763;48.928;8.474;2023-07-20T02:40:20;5.03;;;2.27;;
76065;SDS011;64763;48.928;8.474;2023-07-20T02:42:46;6.20;;;2.50;;
76065;SDS011;64763;48.928;8.474;2023-07-20T02:45:11;3.75;;;2.28;;
76065;SDS011;64763;48.928;8.474;2023-07-20T02:47:37;3.23;;;2.30;;
76065;SDS011;64763;48.928;8.474;2023-07-20T02:50:02;3.73;;;2.30;;
76065;SDS011;64763;48.928;8.474;2023-07-20T02:52:27;8.13;;;2.60;;
76065;SDS011;64763;48.928;8.474;2023-07-20T02:54:54;3.40;;;2.40;;
76065;SDS011;64763;48.928;8.474;2023-07-20T02:57:19;6.07;;;2.60;;
76065;SDS011;64763;48.928;8.474;2023-07-20T02:59:45;5.57;;;2.50;;
76065;SDS011;64763;48.928;8.474;2023-07-20T03:02:10;3.70;;;2.40;;
76065;SDS011;64763;48.928;8.474;2023-07-20T03:04:35;3.90;;;2.30;;
76065;SDS011;64763;48.928;8.474;2023-07-20T03:07:02;4.95;;;2.30;;
76065;SDS011;64763;48.928;8.474;2023-07-20T03:09:28;3.65;;;2.28;;
76065;SDS011;64763;48.928;8.474;2023-07-20T03:11:54;5.28;;;2.50;;
76065;SDS011;64763;48.928;8.474;2023-07-20T03:14:19;4.93;;;3.00;;
76065;SDS011;64763;48.928;8.474;2023-07-20T03:16:44;4.63;;;2.20;;
76065;SDS011;64763;48.928;8.474;2023-07-20T03:19:09;4.47;;;2.10;;
76065;SDS011;64763;48.928;8.474;2023-07-20T03:21:35;3.93;;;2.30;;
76065;SDS011;64763;48.928;8.474;2023-07-20T03:24:00;4.00;;;2.22;;
76065;SDS011;64763;48.928;8.474;2023-07-20T03:26:25;4.60;;;2.20;;
76065;SDS011;64763;48.928;8.474;2023-07-20T03:28:50;4.80;;;2.60;;
76065;SDS011;64763;48.928;8.474;2023-07-20T03:31:16;4.23;;;2.70;;
76065;SDS011;64763;48.928;8.474;2023-07-20T03:33:41;4.20;;;2.43;;
76065;SDS011;64763;48.928;8.474;2023-07-20T03:36:07;7.18;;;2.58;;
76065;SDS011;64763;48.928;8.474;2023-07-20T03:38:32;7.70;;;2.67;;
76065;SDS011;64763;48.928;8.474;2023-07-20T03:40:58;6.00;;;2.50;;
76065;SDS011;64763;48.928;8.474;2023-07-20T03:43:24;6.13;;;2.90;;
76065;SDS011;64763;48.928;8.474;2023-07-20T03:45:50;4.05;;;2.88;;
76065;SDS011;64763;48.928;8.474;2023-07-20T03:48:16;5.70;;;2.42;;
76065;SDS011;64763;48.928;8.474;2023-07-20T03:50:41;4.38;;;2.33;;
76065;SDS011;64763;48.928;8.474;2023-07-20T03:53:07;5.17;;;2.47;;
76065;SDS011;64763;48.928;8.474;2023-07-20T03:55:32;3.70;;;2.20;;
76065;SDS011;64763;48.928;8.474;2023-07-20T03:57:57;5.57;;;2.60;;
76065;SDS011;64763;48.928;8.474;2023-07-20T04:00:22;4.87;;;2.53;;
76065;SDS011;64763;48.928;8.474;2023-07-20T04:02:48;5.35;;;2.50;;
76065;SDS011;64763;48.928;8.474;2023-07-20T04:05:13;4.73;;;2.47;;
76065;SDS011;64763;48.928;8.474;2023-07-20T04:07:38;4.27;;;2.53;;
76065;SDS011;64763;48.928;8.474;2023-07-20T04:10:04;5.77;;;2.63;;
76065;SDS011;64763;48.928;8.474;2023-07-20T04:12:29;3.95;;;2.38;;
76065;SDS011;64763;48.928;8.474;2023-07-20T04:14:54;4.33;;;2.20;;
76065;SDS011;64763;48.928;8.474;2023-07-20T04:17:19;4.87;;;2.83;;
76065;SDS011;64763;48.928;8.474;2023-07-20T04:19:45;3.30;;;2.60;;
76065;SDS011;64763;48.928;8.474;2023-07-20T04:22:10;4.67;;;2.53;;
76065;SDS011;64763;48.928;8.474;2023-07-20T04:24:35;3.70;;;2.72;;
76065;SDS011;64763;48.928;8.474;2023-07-20T04:27:00;5.13;;;2.30;;
76065;SDS011;64763;48.928;8.474;2023-07-20T04:29:26;5.13;;;2.57;;
76065;SDS011;64763;48.928;8.474;2023-07-20T04:31:51;4.63;;;2.50;;
76065;SDS011;64763;48.928;8.474;2023-07-20T04:34:16;8.57;;;2.80;;
76065;SDS011;64763;48.928;8.474;2023-07-20T04:36:41;6.60;;;2.40;;
76065;SDS011;64763;48.928;8.474;2023-07-20T04:39:06;5.40;;;2.70;;
76065;SDS011;64763;48.928;8.474;2023-07-20T04:41:33;4.20;;;2.63;;
76065;SDS011;64763;48.928;8.474;2023-07-20T04:43:58;4.68;;;2.70;;
76065;SDS011;64763;48.928;8.474;2023-07-20T04:46:23;4.93;;;2.60;;
76065;SDS011;64763;48.928;8.474;2023-07-20T04:48:49;5.33;;;2.33;;
76065;SDS011;64763;48.928;8.474;2023-07-20T04:51:14;4.17;;;2.50;;
76065;SDS011;64763;48.928;8.474;2023-07-20T04:53:39;4.97;;;2.30;;
76065;SDS011;64763;48.928;8.474;2023-07-20T04:56:04;4.63;;;2.30;;
76065;SDS011;64763;48.928;8.474;2023-07-20T04:58:29;4.10;;;2.30;;
76065;SDS011;64763;48.928;8.474;2023-07-20T05:00:54;5.07;;;2.70;;
76065;SDS011;64763;48.928;8.474;2023-07-20T05:03:20;3.75;;;2.55;;
76065;SDS011;64763;48.928;8.474;2023-07-20T05:05:46;5.20;;;2.90;;
76065;SDS011;64763;48.928;8.474;2023-07-20T05:08:11;5.50;;;2.30;;
76065;SDS011;64763;48.928;8.474;2023-07-20T05:10:37;4.68;;;2.70;;
76065;SDS011;64763;48.928;8.474;2023-07-20T05:13:02;7.53;;;2.50;;
76065;SDS011;64763;48.928;8.474;2023-07-20T05:15:27;6.80;;;2.70;;
76065;SDS011;64763;48.928;8.474;2023-07-20T05:17:52;4.60;;;2.37;;
76065;SDS011;64763;48.928;8.474;2023-07-20T05:20:18;4.80;;;2.40;;
76065;SDS011;64763;48.928;8.474;2023-07-20T05:22:43;3.72;;;2.20;;
76065;SDS011;64763;48.928;8.474;2023-07-20T05:25:09;4.07;;;2.20;;
76065;SDS011;64763;48.928;8.474;2023-07-20T05:27:38;3.92;;;2.33;;
76065;SDS011;64763;48.928;8.474;2023-07-20T05:30:04;5.57;;;2.50;;
76065;SDS011;64763;48.928;8.474;2023-07-20T05:32:29;3.60;;;2.13;;
76065;SDS011;64763;48.928;8.474;2023-07-20T05:34:54;5.97;;;2.70;;
76065;SDS011;64763;48.928;8.474;2023-07-20T05:37:20;7.77;;;2.43;;
76065;SDS011;64763;48.928;8.474;2023-07-20T05:39:45;4.57;;;2.42;;
76065;SDS011;64763;48.928;8.474;2023-07-20T05:42:10;7.60;;;2.60;;
76065;SDS011;64763;48.928;8.474;2023-07-20T05:44:36;4.50;;;2.73;;
76065;SDS011;64763;48.928;8.474;2023-07-20T05:47:01;3.33;;;2.40;;
76065;SDS011;64763;48.928;8.474;2023-07-20T05:49:27;7.32;;;2.67;;
76065;SDS011;64763;48.928;8.474;2023-07-20T05:51:52;5.00;;;2.38;;
76065;SDS011;64763;48.928;8.474;2023-07-20T05:54:18;3.47;;;2.30;;
76065;SDS011;64763;48.928;8.474;2023-07-20T05:56:45;3.92;;;2.47;;
76065;SDS011;64763;48.928;8.474;2023-07-20T05:59:10;5.35;;;2.33;;
76065;SDS011;64763;48.928;8.474;2023-07-20T06:01:35;4.03;;;2.47;;
76065;SDS011;64763;48.928;8.474;2023-07-20T06:04:01;7.00;;;2.50;;
76065;SDS011;64763;48.928;8.474;2023-07-20T06:06:28;3.92;;;2.58;;
76065;SDS011;64763;48.928;8.474;2023-07-20T06:08:53;5.93;;;2.80;;
76065;SDS011;64763;48.928;8.474;2023-07-20T06:11:18;5.33;;;2.93;;
76065;SDS011;64763;48.928;8.474;2023-07-20T06:13:44;4.73;;;2.43;;
76065;SDS011;64763;48.928;8.474;2023-07-20T06:16:09;4.00;;;2.30;;
76065;SDS011;64763;48.928;8.474;2023-07-20T06:18:34;6.20;;;2.80;;
76065;SDS011;64763;48.928;8.474;2023-07-20T06:20:59;5.77;;;2.40;;
76065;SDS011;64763;48.928;8.474;2023-07-20T06:23:24;6.23;;;2.67;;
76065;SDS011;64763;48.928;8.474;2023-07-20T06:25:50;3.42;;;2.40;;
76065;SDS011;64763;48.928;8.474;2023-07-20T06:28:15;5.97;;;2.97;;
76065;SDS011;64763;48.928;8.474;2023-07-20T06:30:40;5.03;;;2.70;;
76065;SDS011;64763;48.928;8.474;2023-07-20T06:33:05;5.20;;;2.27;;
76065;SDS011;64763;48.928;8.474;2023-07-20T06:35:32;9.15;;;3.03;;
76065;SDS011;64763;48.928;8.474;2023-07-20T06:37:57;4.37;;;2.57;;
76065;SDS011;64763;48.928;8.474;2023-07-20T06:40:24;4.10;;;2.70;;
76065;SDS011;64763;48.928;8.474;2023-07-20T06:42:49;4.83;;;2.70;;
76065;SDS011;64763;48.928;8.474;2023-07-20T06:45:14;6.67;;;2.77;;
76065;SDS011;64763;48.928;8.474;2023-07-20T06:47:39;4.70;;;2.50;;
76065;SDS011;64763;48.928;8.474;2023-07-20T06:50:06;4.47;;;2.50;;
76065;SDS011;64763;48.928;8.474;2023-07-20T06:52:31;9.82;;;2.90;;
76065;SDS011;64763;48.928;8.474;2023-07-20T06:54:56;4.50;;;2.50;;
76065;SDS011;64763;48.928;8.474;2023-07-20T06:57:21;4.87;;;2.67;;
76065;SDS011;64763;48.928;8.474;2023-07-20T06:59:47;4.53;;;2.50;;
76065;SDS011;64763;48.928;8.474;2023-07-20T07:02:12;5.45;;;2.90;;
76065;SDS011;64763;48.928;8.474;2023-07-20T07:04:37;5.00;;;2.80;;
76065;SDS011;64763;48.928;8.474;2023-07-20T07:07:03;5.40;;;2.50;;
76065;SDS011;64763;48.928;8.474;2023-07-20T07:09:28;4.30;;;2.50;;
76065;SDS011;64763;48.928;8.474;2023-07-20T07:11:54;5.03;;;2.30;;
76065;SDS011;64763;48.928;8.474;2023-07-20T07:14:19;6.25;;;2.85;;
76065;SDS011;64763;48.928;8.474;2023-07-20T07:16:44;4.25;;;2.58;;
76065;SDS011;64763;48.928;8.474;2023-07-20T07:19:10;7.13;;;2.70;;
76065;SDS011;64763;48.928;8.474;2023-07-20T07:21:35;5.10;;;2.40;;
76065;SDS011;64763;48.928;8.474;2023-07-20T07:24:00;4.83;;;2.40;;
76065;SDS011;64763;48.928;8.474;2023-07-20T07:26:26;4.80;;;2.30;;
76065;SDS011;64763;48.928;8.474;2023-07-20T07:28:51;4.57;;;2.30;;
76065;SDS011;64763;48.928;8.474;2023-07-20T07:31:16;5.77;;;2.50;;
76065;SDS011;64763;48.928;8.474;2023-07-20T07:33:41;4.97;;;2.47;;
76065;SDS011;64763;48.928;8.474;2023-07-20T07:36:07;5.47;;;2.13;;
76065;SDS011;64763;48.928;8.474;2023-07-20T07:38:32;6.30;;;2.40;;
76065;SDS011;64763;48.928;8.474;2023-07-20T07:40:57;4.97;;;2.30;;
76065;SDS011;64763;48.928;8.474;2023-07-20T07:43:23;3.72;;;2.40;;
76065;SDS011;64763;48.928;8.474;2023-07-20T07:45:48;4.53;;;2.63;;
76065;SDS011;64763;48.928;8.474;2023-07-20T07:48:13;4.40;;;2.10;;
76065;SDS011;64763;48.928;8.474;2023-07-20T07:50:39;3.95;;;2.35;;
76065;SDS011;64763;48.928;8.474;2023-07-20T07:53:07;5.18;;;2.33;;
76065;SDS011;64763;48.928;8.474;2023-07-20T07:55:33;5.72;;;2.25;;
76065;SDS011;64763;48.928;8.474;2023-07-20T07:58:00;3.85;;;2.25;;
76065;SDS011;64763;48.928;8.474;2023-07-20T08:00:25;3.57;;;2.13;;
76065;SDS011;64763;48.928;8.474;2023-07-20T08:02:50;4.35;;;2.10;;
76065;SDS011;64763;48.928;8.474;2023-07-20T08:05:16;4.13;;;2.40;;
76065;SDS011;64763;48.928;8.474;2023-07-20T08:07:41;7.03;;;2.25;;
76065;SDS011;64763;48.928;8.474;2023-07-20T08:10:07;4.55;;;2.10;;
76065;SDS011;64763;48.928;8.474;2023-07-20T08:12:33;3.28;;;2.17;;
76065;SDS011;64763;48.928;8.474;2023-07-20T08:14:58;6.43;;;2.67;;
76065;SDS011;64763;48.928;8.474;2023-07-20T08:17:23;6.40;;;2.30;;
76065;SDS011;64763;48.928;8.474;2023-07-20T08:19:49;4.13;;;2.17;;
76065;SDS011;64763;48.928;8.474;2023-07-20T08:22:14;5.23;;;2.40;;
76065;SDS011;64763;48.928;8.474;2023-07-20T08:24:40;3.13;;;1.95;;
76065;SDS011;64763;48.928;8.474;2023-07-20T08:27:06;4.10;;;2.00;;
76065;SDS011;64763;48.928;8.474;2023-07-20T08:29:31;3.10;;;1.92;;
76065;SDS011;64763;48.928;8.474;2023-07-20T08:31:56;4.05;;;2.30;;
76065;SDS011;64763;48.928;8.474;2023-07-20T08:34:22;3.60;;;2.23;;
76065;SDS011;64763;48.928;8.474;2023-07-20T08:36:47;5.00;;;2.30;;
76065;SDS011;64763;48.928;8.474;2023-07-20T08:39:12;4.13;;;2.43;;
76065;SDS011;64763;48.928;8.474;2023-07-20T08:41:37;4.13;;;2.50;;
76065;SDS011;64763;48.928;8.474;2023-07-20T08:44:04;4.20;;;2.60;;
76065;SDS011;64763;48.928;8.474;2023-07-20T08:46:30;6.68;;;2.40;;
76065;SDS011;64763;48.928;8.474;2023-07-20T08:48:55;4.00;;;2.20;;
76065;SDS011;64763;48.928;8.474;2023-07-20T08:51:21;3.67;;;2.40;;
76065;SDS011;64763;48.928;8.474;2023-07-20T08:53:46;5.93;;;2.07;;
76065;SDS011;64763;48.928;8.474;2023-07-20T08:56:12;4.55;;;1.98;;
76065;SDS011;64763;48.928;8.474;2023-07-20T08:58:39;3.80;;;2.13;;
76065;SDS011;64763;48.928;8.474;2023-07-20T09:01:04;3.40;;;1.63;;
76065;SDS011;64763;48.928;8.474;2023-07-20T09:03:29;3.17;;;2.00;;
76065;SDS011;64763;48.928;8.474;2023-07-20T09:05:55;5.27;;;2.23;;
76065;SDS011;64763;48.928;8.474;2023-07-20T09:08:20;7.43;;;2.40;;
76065;SDS011;64763;48.928;8.474;2023-07-20T09:10:45;2.83;;;1.90;;
76065;SDS011;64763;48.928;8.474;2023-07-20T09:13:13;3.90;;;1.73;;
76065;SDS011;64763;48.928;8.474;2023-07-20T09:15:39;7.63;;;2.15;;
76065;SDS011;64763;48.928;8.474;2023-07-20T09:18:04;9.10;;;2.23;;
76065;SDS011;64763;48.928;8.474;2023-07-20T09:20:30;3.87;;;2.00;;
76065;SDS011;64763;48.928;8.474;2023-07-20T09:22:56;5.38;;;2.10;;
76065;SDS011;64763;48.928;8.474;2023-07-20T09:25:22;5.60;;;2.10;;
76065;SDS011;64763;48.928;8.474;2023-07-20T09:27:47;3.60;;;2.58;;
76065;SDS011;64763;48.928;8.474;2023-07-20T09:30:13;5.43;;;2.15;;
76065;SDS011;64763;48.928;8.474;2023-07-20T09:32:40;4.40;;;2.40;;
76065;SDS011;64763;48.928;8.474;2023-07-20T09:35:06;4.10;;;2.30;;
76065;SDS011;64763;48.928;8.474;2023-07-20T09:37:32;5.70;;;2.33;;
76065;SDS011;64763;48.928;8.474;2023-07-20T09:39:58;4.45;;;2.17;;
76065;SDS011;64763;48.928;8.474;2023-07-20T09:42:24;4.20;;;2.00;;
76065;SDS011;64763;48.928;8.474;2023-07-20T09:44:50;4.07;;;2.20;;
76065;SDS011;64763;48.928;8.474;2023-07-20T09:47:21;4.22;;;2.10;;
76065;SDS011;64763;48.928;8.474;2023-07-20T09:49:46;3.20;;;1.73;;
76065;SDS011;64763;48.928;8.474;2023-07-20T09:52:11;2.63;;;2.00;;
76065;SDS011;64763;48.928;8.474;2023-07-20T09:54:38;3.28;;;2.22;;
76065;SDS011;64763;48.928;8.474;2023-07-20T09:57:03;4.00;;;1.85;;
76065;SDS011;64763;48.928;8.474;2023-07-20T09:59:29;5.20;;;2.20;;
76065;SDS011;64763;48.928;8.474;2023-07-20T10:01:56;3.65;;;2.10;;
76065;SDS011;64763;48.928;8.474;2023-07-20T10:04:22;3.58;;;2.00;;
76065;SDS011;64763;48.928;8.474;2023-07-20T10:06:48;6.00;;;2.17;;
76065;SDS011;64763;48.928;8.474;2023-07-20T10:09:14;3.08;;;1.90;;
76065;SDS011;64763;48.928;8.474;2023-07-20T10:11:40;5.25;;;2.55;;
76065;SDS011;64763;48.928;8.474;2023-07-20T10:14:08;3.28;;;2.00;;
76065;SDS011;64763;48.928;8.474;2023-07-20T10:16:36;4.10;;;2.35;;
76065;SDS011;64763;48.928;8.474;2023-07-20T10:21:27;4.63;;;2.03;;
76065;SDS011;64763;48.928;8.474;2023-07-20T10:23:58;3.72;;;1.95;;
76065;SDS011;64763;48.928;8.474;2023-07-20T10:26:24;3.65;;;2.28;;
76065;SDS011;64763;48.928;8.474;2023-07-20T10:28:50;3.90;;;1.90;;
76065;SDS011;64763;48.928;8.474;2023-07-20T10:31:15;3.87;;;2.00;;
76065;SDS011;64763;48.928;8.474;2023-07-20T10:33:40;4.88;;;2.47;;
76065;SDS011;64763;48.928;8.474;2023-07-20T10:36:06;5.00;;;2.20;;
76065;SDS011;64763;48.928;8.474;2023-07-20T10:41:15;3.70;;;1.73;;
76065;SDS011;64763;48.928;8.474;2023-07-20T10:43:42;4.25;;;1.98;;
76065;SDS011;64763;48.928;8.474;2023-07-20T10:46:07;2.80;;;1.98;;
76065;SDS011;64763;48.928;8.474;2023-07-20T10:48:35;3.53;;;1.90;;
76065;SDS011;64763;48.928;8.474;2023-07-20T10:51:20;2.75;;;1.90;;
76065;SDS011;64763;48.928;8.474;2023-07-20T10:53:48;3.85;;;2.05;;
76065;SDS011;64763;48.928;8.474;2023-07-20T10:56:13;4.47;;;1.80;;
76065;SDS011;64763;48.928;8.474;2023-07-20T10:58:39;2.67;;;1.75;;
76065;SDS011;64763;48.928;8.474;2023-07-20T11:01:05;3.40;;;1.83;;
76065;SDS011;64763;48.928;8.474;2023-07-20T11:03:35;2.88;;;1.90;;
76065;SDS011;64763;48.928;8.474;2023-07-20T11:06:29;3.78;;;1.95;;
76065;SDS011;64763;48.928;8.474;2023-07-20T11:08:45;3.55;;;2.10;;
76065;SDS011;64763;48.928;8.474;2023-07-20T11:11:27;3.27;;;2.00;;
76065;SDS011;64763;48.928;8.474;2023-07-20T11:13:53;3.47;;;1.85;;
76065;SDS011;64763;48.928;8.474;2023-07-20T11:16:19;4.07;;;1.95;;
76065;SDS011;64763;48.928;8.474;2023-07-20T11:18:44;4.75;;;1.60;;
76065;SDS011;64763;48.928;8.474;2023-07-20T11:21:10;3.97;;;2.17;;
76065;SDS011;64763;48.928;8.474;2023-07-20T11:23:37;2.60;;;1.75;;
76065;SDS011;64763;48.928;8.474;2023-07-20T11:26:02;3.10;;;2.00;;
76065;SDS011;64763;48.928;8.474;2023-07-20T11:28:30;3.60;;;1.92;;
76065;SDS011;64763;48.928;8.474;2023-07-20T11:30:55;2.83;;;1.95;;
76065;SDS011;64763;48.928;8.474;2023-07-20T11:33:20;3.13;;;2.00;;
76065;SDS011;64763;48.928;8.474;2023-07-20T11:35:45;2.50;;;2.00;;
76065;SDS011;64763;48.928;8.474;2023-07-20T11:38:15;3.75;;;1.80;;
76065;SDS011;64763;48.928;8.474;2023-07-20T11:40:44;4.93;;;2.00;;
76065;SDS011;64763;48.928;8.474;2023-07-20T11:43:10;5.80;;;2.17;;
76065;SDS011;64763;48.928;8.474;2023-07-20T11:45:36;3.88;;;2.00;;
76065;SDS011;64763;48.928;8.474;2023-07-20T11:48:02;2.58;;;1.58;;
76065;SDS011;64763;48.928;8.474;2023-07-20T11:50:27;3.50;;;1.80;;
76065;SDS011;64763;48.928;8.474;2023-07-20T11:52:52;3.33;;;1.87;;
76065;SDS011;64763;48.928;8.474;2023-07-20T11:55:18;3.78;;;1.88;;
76065;SDS011;64763;48.928;8.474;2023-07-20T11:58:00;3.47;;;1.92;;
76065;SDS011;64763;48.928;8.474;2023-07-20T12:00:25;3.65;;;1.70;;
76065;SDS011;64763;48.928;8.474;2023-07-20T12:02:50;3.40;;;1.77;;
76065;SDS011;64763;48.928;8.474;2023-07-20T12:05:18;3.13;;;1.80;;
76065;SDS011;64763;48.928;8.474;2023-07-20T12:07:44;2.95;;;1.65;;
76065;SDS011;64763;48.928;8.474;2023-07-20T12:10:12;3.77;;;1.80;;
76065;SDS011;64763;48.928;8.474;2023-07-20T12:12:38;2.53;;;1.60;;
76065;SDS011;64763;48.928;8.474;2023-07-20T12:17:48;4.35;;;1.75;;
76065;SDS011;64763;48.928;8.474;2023-07-20T12:20:23;2.92;;;1.58;;
76065;SDS011;64763;48.928;8.474;2023-07-20T12:22:49;3.67;;;1.52;;
76065;SDS011;64763;48.928;8.474;2023-07-20T12:25:14;4.43;;;1.70;;
76065;SDS011;64763;48.928;8.474;2023-07-20T12:27:40;2.08;;;1.40;;
76065;SDS011;64763;48.928;8.474;2023-07-20T12:30:06;2.55;;;2.05;;
76065;SDS011;64763;48.928;8.474;2023-07-20T12:32:32;2.45;;;1.70;;
76065;SDS011;64763;48.928;8.474;2023-07-20T12:34:58;3.60;;;1.40;;
76065;SDS011;64763;48.928;8.474;2023-07-20T12:37:25;4.07;;;1.65;;
76065;SDS011;64763;48.928;8.474;2023-07-20T12:39:51;3.72;;;1.67;;
76065;SDS011;64763;48.928;8.474;2023-07-20T12:42:16;2.70;;;1.73;;
76065;SDS011;64763;48.928;8.474;2023-07-20T12:44:42;2.25;;;1.50;;
76065;SDS011;64763;48.928;8.474;2023-07-20T12:47:07;3.70;;;1.57;;
76065;SDS011;64763;48.928;8.474;2023-07-20T12:49:32;2.55;;;1.52;;
76065;SDS011;64763;48.928;8.474;2023-07-20T12:51:57;2.87;;;1.53;;
76065;SDS011;64763;48.928;8.474;2023-07-20T12:54:23;3.08;;;1.48;;
76065;SDS011;64763;48.928;8.474;2023-07-20T12:56:48;2.27;;;1.33;;
76065;SDS011;64763;48.928;8.474;2023-07-20T12:59:13;2.63;;;1.70;;
76065;SDS011;64763;48.928;8.474;2023-07-20T13:01:39;3.70;;;1.50;;
76065;SDS011;64763;48.928;8.474;2023-07-20T13:04:06;2.83;;;1.50;;
76065;SDS011;64763;48.928;8.474;2023-07-20T13:06:34;1.90;;;1.35;;
76065;SDS011;64763;48.928;8.474;2023-07-20T13:08:59;2.45;;;1.35;;
76065;SDS011;64763;48.928;8.474;2023-07-20T13:11:24;2.87;;;1.50;;
76065;SDS011;64763;48.928;8.474;2023-07-20T13:13:50;3.20;;;1.30;;
76065;SDS011;64763;48.928;8.474;2023-07-20T13:16:15;2.80;;;1.40;;
76065;SDS011;64763;48.928;8.474;2023-07-20T13:18:40;4.43;;;1.50;;
76065;SDS011;64763;48.928;8.474;2023-07-20T13:21:05;2.40;;;1.30;;
76065;SDS011;64763;48.928;8.474;2023-07-20T13:23:35;3.03;;;1.48;;
76065;SDS011;64763;48.928;8.474;2023-07-20T13:26:00;4.37;;;1.70;;
76065;SDS011;64763;48.928;8.474;2023-07-20T13:28:25;2.37;;;1.47;;
76065;SDS011;64763;48.928;8.474;2023-07-20T13:30:50;2.43;;;1.50;;
76065;SDS011;64763;48.928;8.474;2023-07-20T13:33:16;2.70;;;1.63;;
76065;SDS011;64763;48.928;8.474;2023-07-20T13:35:41;2.73;;;1.57;;
76065;SDS011;64763;48.928;8.474;2023-07-20T13:38:06;2.17;;;1.40;;
76065;SDS011;64763;48.928;8.474;2023-07-20T13:40:32;2.60;;;1.70;;
76065;SDS011;64763;48.928;8.474;2023-07-20T13:42:57;1.80;;;1.33;;
76065;SDS011;64763;48.928;8.474;2023-07-20T13:45:22;2.40;;;1.60;;
76065;SDS011;64763;48.928;8.474;2023-07-20T13:47:47;3.83;;;1.50;;
76065;SDS011;64763;48.928;8.474;2023-07-20T13:50:13;2.85;;;1.40;;
76065;SDS011;64763;48.928;8.474;2023-07-20T13:52:38;2.50;;;1.30;;
76065;SDS011;64763;48.928;8.474;2023-07-20T13:55:03;1.60;;;1.10;;
76065;SDS011;64763;48.928;8.474;2023-07-20T13:57:29;2.42;;;1.40;;
76065;SDS011;64763;48.928;8.474;2023-07-20T13:59:54;2.73;;;1.40;;
76065;SDS011;64763;48.928;8.474;2023-07-20T14:02:20;1.88;;;1.48;;
76065;SDS011;64763;48.928;8.474;2023-07-20T14:04:45;2.43;;;1.50;;
76065;SDS011;64763;48.928;8.474;2023-07-20T14:07:10;1.90;;;1.40;;
76065;SDS011;64763;48.928;8.474;2023-07-20T14:09:36;2.67;;;1.30;;
76065;SDS011;64763;48.928;8.474;2023-07-20T14:12:01;3.00;;;1.50;;
76065;SDS011;64763;48.928;8.474;2023-07-20T14:14:26;2.20;;;1.40;;
76065;SDS011;64763;48.928;8.474;2023-07-20T14:16:52;2.50;;;1.60;;
76065;SDS011;64763;48.928;8.474;2023-07-20T14:19:17;1.93;;;1.30;;
76065;SDS011;64763;48.928;8.474;2023-07-20T14:21:42;2.57;;;1.40;;
76065;SDS011;64763;48.928;8.474;2023-07-20T14:24:07;2.83;;;1.40;;
76065;SDS011;64763;48.928;8.474;2023-07-20T14:26:32;3.00;;;1.70;;
76065;SDS011;64763;48.928;8.474;2023-07-20T14:29:00;3.33;;;1.90;;
76065;SDS011;64763;48.928;8.474;2023-07-20T14:31:26;1.70;;;1.20;;
76065;SDS011;64763;48.928;8.474;2023-07-20T14:33:51;2.13;;;1.40;;
76065;SDS011;64763;48.928;8.474;2023-07-20T14:36:16;2.83;;;1.60;;
76065;SDS011;64763;48.928;8.474;2023-07-20T14:38:42;3.22;;;1.50;;
76065;SDS011;64763;48.928;8.474;2023-07-20T14:41:08;3.55;;;1.60;;
76065;SDS011;64763;48.928;8.474;2023-07-20T14:43:33;2.30;;;1.50;;
76065;SDS011;64763;48.928;8.474;2023-07-20T14:45:58;6.30;;;1.70;;
76065;SDS011;64763;48.928;8.474;2023-07-20T14:48:23;2.73;;;1.60;;
76065;SDS011;64763;48.928;8.474;2023-07-20T14:50:48;2.47;;;1.60;;
76065;SDS011;64763;48.928;8.474;2023-07-20T14:53:14;2.10;;;1.30;;
76065;SDS011;64763;48.928;8.474;2023-07-20T14:55:39;4.10;;;1.77;;
76065;SDS011;64763;48.928;8.474;2023-07-20T14:58:04;2.00;;;1.30;;